Time;durP1;ratioP1;P1;durP2;ratioP2;P2;SDS_P1;SDS_P2;PMS_P1;PMS_P2;Temp;Humidity;BMP_temperature;BMP_pressure;BME280_temperature;BME280_humidity;BME280_pressure;Samples;Min_cycle;Max_cycle;Signal;HPM_P1;HPM_P2
2022/05/16 00:01:41;;;;;;;4.25;2.10;;;;;;;19.26;45.93;96664.19;4997546;28;20547;-69
2022/05/16 00:04:06;;;;;;;2.13;1.98;;;;;;;19.23;46.05;96670.84;5014240;28;20198;-70
2022/05/16 00:06:32;;;;;;;2.15;1.95;;;;;;;19.21;45.85;96661.59;5015155;28;20184;-70
2022/05/16 00:08:58;;;;;;;2.30;2.10;;;;;;;19.22;45.89;96655.19;5015092;28;20238;-69
2022/05/16 00:11:24;;;;;;;1.90;1.80;;;;;;;19.07;46.15;96656.16;5007394;28;20187;-70
2022/05/16 00:13:49;;;;;;;4.40;2.35;;;;;;;19.01;46.44;96654.63;5006534;28;20479;-70
2022/05/16 00:16:14;;;;;;;2.33;2.05;;;;;;;19.05;46.28;96653.00;5014752;28;20280;-69
2022/05/16 00:18:40;;;;;;;2.63;1.92;;;;;;;18.97;46.31;96650.97;5014236;28;20227;-70
2022/05/16 00:21:05;;;;;;;2.05;1.95;;;;;;;19.11;46.07;96655.28;5014481;28;20664;-70
2022/05/16 00:23:31;;;;;;;2.92;1.90;;;;;;;19.10;46.28;96653.75;5014949;28;20346;-69
2022/05/16 00:25:57;;;;;;;1.88;1.77;;;;;;;18.95;46.58;96647.78;5014641;28;20200;-69
2022/05/16 00:28:22;;;;;;;1.88;1.77;;;;;;;18.91;46.78;96641.47;5014185;28;20196;-70
2022/05/16 00:30:48;;;;;;;2.08;1.80;;;;;;;18.92;46.77;96637.75;5014910;28;20176;-69
2022/05/16 00:33:13;;;;;;;2.40;2.20;;;;;;;18.90;47.26;96635.34;5014784;28;20198;-70
2022/05/16 00:35:39;;;;;;;4.75;2.10;;;;;;;18.90;47.23;96630.03;5014812;28;20596;-70
2022/05/16 00:38:05;;;;;;;3.05;2.30;;;;;;;18.80;47.31;96630.16;4996891;28;20233;-69
2022/05/16 00:40:30;;;;;;;2.45;2.00;;;;;;;18.91;47.27;96639.59;5014024;28;20187;-70
2022/05/16 00:43:04;;;;;;;4.15;2.00;;;;;;;18.89;47.10;96620.50;5014455;28;20191;-70
2022/05/16 00:45:29;;;;;;;2.15;1.92;;;;;;;18.84;47.16;96631.16;5014603;28;20245;-70
2022/05/16 00:47:55;;;;;;;5.05;2.00;;;;;;;18.94;46.92;96633.75;5014426;28;20195;-70
2022/05/16 00:50:20;;;;;;;1.98;1.88;;;;;;;18.85;46.87;96621.34;5013744;28;20191;-70
2022/05/16 00:52:49;;;;;;;3.35;2.00;;;;;;;18.92;46.75;96619.16;5014296;28;20172;-70
2022/05/16 00:55:21;;;;;;;2.30;2.13;;;;;;;18.86;46.69;96612.31;5014202;28;20198;-70
2022/05/16 00:57:55;;;;;;;2.47;2.22;;;;;;;18.84;46.64;96615.25;5014490;28;20258;-70
2022/05/16 01:00:29;;;;;;;1.98;1.88;;;;;;;18.81;47.25;96613.16;5014296;28;20249;-70
2022/05/16 01:05:50;;;;;;;2.00;1.85;;;;;;;18.62;47.62;96610.44;5014085;28;20193;-70
2022/05/16 01:08:23;;;;;;;1.80;1.70;;;;;;;18.71;47.63;96613.28;5013697;28;20275;-70
2022/05/16 01:10:49;;;;;;;4.23;1.93;;;;;;;18.75;47.23;96601.00;5010014;28;20632;-70
2022/05/16 01:13:15;;;;;;;2.47;2.10;;;;;;;18.62;47.03;96607.78;5014168;28;20202;-70
2022/05/16 01:15:44;;;;;;;4.30;1.80;;;;;;;18.60;47.16;96607.28;5014166;28;20547;-70
2022/05/16 01:18:13;;;;;;;3.42;1.70;;;;;;;18.73;46.59;96607.66;5013253;28;20562;-70
2022/05/16 01:21:06;;;;;;;2.88;2.13;;;;;;;18.77;46.38;96604.19;5013878;28;20179;-70
2022/05/16 01:23:37;;;;;;;2.17;1.90;;;;;;;18.58;46.71;96609.41;5013962;28;20175;-69
2022/05/16 01:26:08;;;;;;;2.38;2.17;;;;;;;18.78;46.69;96602.31;5029080;28;20172;-70
2022/05/16 01:28:33;;;;;;;3.05;2.13;;;;;;;18.67;46.74;96599.75;5013165;28;20211;-71
2022/05/16 01:30:59;;;;;;;2.25;1.85;;;;;;;18.63;47.05;96611.22;5013394;28;20191;-69
2022/05/16 01:33:25;;;;;;;2.92;2.03;;;;;;;18.62;47.80;96607.78;4995465;28;20188;-69
2022/05/16 01:35:51;;;;;;;2.20;2.00;;;;;;;18.64;47.86;96613.59;5013512;28;20569;-69
2022/05/16 01:38:23;;;;;;;3.10;1.97;;;;;;;18.59;48.30;96613.66;5013276;28;20180;-70
2022/05/16 01:40:50;;;;;;;2.75;2.10;;;;;;;18.53;48.45;96613.97;5013322;28;20179;-70
2022/05/16 01:43:18;;;;;;;3.40;1.87;;;;;;;18.45;48.99;96609.25;5013075;28;20276;-70
2022/05/16 01:45:44;;;;;;;4.38;2.38;;;;;;;18.33;49.29;96619.47;5013677;28;20172;-70
2022/05/16 01:48:11;;;;;;;1.88;1.77;;;;;;;18.15;50.11;96618.31;5013250;28;20218;-70
2022/05/16 01:50:38;;;;;;;2.47;2.27;;;;;;;18.10;50.33;96621.78;5013601;28;20182;-70
2022/05/16 01:53:03;;;;;;;1.80;1.70;;;;;;;17.97;50.81;96629.59;5013329;28;20282;-70
2022/05/16 01:55:29;;;;;;;3.35;2.00;;;;;;;17.91;51.12;96634.13;5013013;28;20266;-71
2022/05/16 01:57:55;;;;;;;2.30;2.07;;;;;;;17.88;51.48;96628.59;5012722;28;20278;-70
2022/05/16 02:00:20;;;;;;;2.83;2.57;;;;;;;17.57;52.64;96628.75;5012927;28;20192;-70
2022/05/16 02:02:46;;;;;;;3.87;2.50;;;;;;;17.43;53.16;96622.50;5012826;28;20554;-70
2022/05/16 02:05:15;;;;;;;4.97;2.40;;;;;;;17.28;53.51;96615.41;5012801;28;20191;-70
2022/05/16 02:07:41;;;;;;;4.23;2.47;;;;;;;17.34;53.70;96616.16;5012955;28;20290;-69
2022/05/16 02:10:08;;;;;;;2.40;2.20;;;;;;;17.30;54.26;96612.50;4990350;28;20338;-70
2022/05/16 02:12:35;;;;;;;3.27;2.33;;;;;;;17.39;54.37;96619.59;5006248;28;20194;-70
2022/05/16 02:15:01;;;;;;;2.40;2.20;;;;;;;17.23;54.89;96612.78;5012837;28;20191;-70
2022/05/16 02:17:27;;;;;;;2.40;2.20;;;;;;;17.25;55.10;96610.66;5012244;28;20237;-70
2022/05/16 02:19:52;;;;;;;2.63;2.43;;;;;;;17.29;54.78;96600.31;5012913;28;20187;-70
2022/05/16 02:25:02;;;;;;;2.17;1.97;;;;;;;17.20;55.10;96594.00;5012024;28;20690;-70
2022/05/16 02:27:27;;;;;;;3.47;2.20;;;;;;;16.98;55.85;96603.13;5027241;28;20203;-70
2022/05/16 02:29:53;;;;;;;2.33;2.13;;;;;;;16.96;55.90;96601.78;5012611;28;20218;-70
2022/05/16 02:32:18;;;;;;;1.97;1.80;;;;;;;17.19;55.11;96603.00;5012497;28;20189;-70
2022/05/16 02:34:44;;;;;;;2.53;1.90;;;;;;;17.38;54.15;96602.13;5012607;28;20651;-69
2022/05/16 02:37:11;;;;;;;3.97;2.10;;;;;;;17.55;53.49;96604.41;5012643;28;20249;-70
2022/05/16 02:39:37;;;;;;;2.30;2.13;;;;;;;17.55;53.95;96595.66;5012744;28;20650;-70
2022/05/16 02:42:03;;;;;;;3.40;2.23;;;;;;;17.33;54.74;96604.00;5012287;28;20261;-69
2022/05/16 02:44:29;;;;;;;3.63;2.20;;;;;;;17.55;54.07;96608.91;5012815;28;20179;-69
2022/05/16 02:46:54;;;;;;;2.40;2.10;;;;;;;17.56;53.98;96610.47;5012474;28;20191;-70
2022/05/16 02:49:21;;;;;;;2.67;2.10;;;;;;;17.56;53.71;96597.22;5012767;28;20210;-69
2022/05/16 02:51:47;;;;;;;2.40;2.20;;;;;;;17.67;53.27;96604.88;5012625;28;20546;-70
2022/05/16 02:54:12;;;;;;;6.70;2.40;;;;;;;17.62;53.49;96604.09;5011993;28;20195;-70
2022/05/16 02:56:37;;;;;;;2.20;2.00;;;;;;;17.73;53.73;96609.06;5012668;28;20210;-69
2022/05/16 02:59:03;;;;;;;1.93;1.83;;;;;;;17.72;53.70;96606.72;5012369;28;20202;-70
2022/05/16 03:01:29;;;;;;;2.33;2.10;;;;;;;17.82;53.78;96602.13;5012527;28;20190;-69
2022/05/16 03:03:55;;;;;;;2.40;2.20;;;;;;;17.81;53.92;96605.84;5012385;28;20665;-69
2022/05/16 03:06:20;;;;;;;2.00;1.90;;;;;;;17.86;53.84;96605.00;5011783;28;20194;-70
2022/05/16 03:08:46;;;;;;;2.83;2.17;;;;;;;17.88;53.96;96610.84;5012341;28;20234;-70
2022/05/16 03:11:11;;;;;;;2.10;2.00;;;;;;;17.98;53.85;96607.31;4995649;28;20220;-70
2022/05/16 03:13:36;;;;;;;3.70;2.30;;;;;;;17.99;54.08;96622.16;5012315;28;20518;-69
2022/05/16 03:16:04;;;;;;;1.93;1.83;;;;;;;17.95;54.16;96627.19;5012723;28;20245;-70
2022/05/16 03:18:31;;;;;;;2.83;2.20;;;;;;;18.11;53.51;96628.66;5012372;28;20255;-70
2022/05/16 03:20:57;;;;;;;4.30;2.35;;;;;;;18.01;54.03;96625.31;5012363;28;20191;-70
2022/05/16 03:23:23;;;;;;;2.78;2.13;;;;;;;18.01;54.23;96622.66;5011925;28;20193;-69
2022/05/16 03:25:49;;;;;;;3.13;2.30;;;;;;;18.08;53.96;96629.22;5012073;28;20184;-70
2022/05/16 03:28:14;;;;;;;2.20;2.00;;;;;;;18.15;54.07;96621.75;5012277;28;20206;-70
2022/05/16 03:30:40;;;;;;;5.80;2.37;;;;;;;18.24;53.90;96630.69;5011926;28;20245;-70
2022/05/16 03:33:06;;;;;;;4.30;2.30;;;;;;;18.31;53.91;96626.91;4994514;28;20187;-70
2022/05/16 03:35:32;;;;;;;2.67;2.27;;;;;;;18.35;53.79;96627.94;5012296;28;20191;-70
2022/05/16 03:37:57;;;;;;;2.83;2.23;;;;;;;18.34;53.81;96629.00;5012557;28;20195;-70
2022/05/16 03:43:07;;;;;;;2.30;2.20;;;;;;;18.43;53.97;96624.69;4993317;28;20215;-70
2022/05/16 03:45:32;;;;;;;3.50;2.50;;;;;;;18.27;54.73;96632.00;5016665;28;20175;-70
2022/05/16 03:47:57;;;;;;;2.38;2.17;;;;;;;18.34;54.40;96629.00;5015748;28;20286;-70
2022/05/16 03:50:23;;;;;;;2.47;2.30;;;;;;;18.25;54.75;96637.56;5015950;28;20599;-69
2022/05/16 03:52:49;;;;;;;3.50;2.20;;;;;;;18.43;54.31;96640.59;5015776;28;20198;-70
2022/05/16 03:55:15;;;;;;;2.70;2.50;;;;;;;18.42;54.42;96639.03;5015317;28;20261;-70
2022/05/16 03:57:42;;;;;;;2.50;2.30;;;;;;;18.39;54.21;96644.91;5015434;28;20191;-70
2022/05/16 04:00:10;;;;;;;2.20;2.03;;;;;;;18.63;53.83;96646.53;5015638;28;20274;-70
2022/05/16 04:02:37;;;;;;;2.85;2.03;;;;;;;18.57;53.94;96646.88;5015308;28;20187;-70
2022/05/16 04:05:03;;;;;;;2.37;2.20;;;;;;;18.55;54.07;96651.69;5015139;28;20180;-70
2022/05/16 04:07:29;;;;;;;5.75;2.30;;;;;;;18.52;54.31;96645.03;5015243;28;20238;-71
2022/05/16 04:09:54;;;;;;;4.47;2.17;;;;;;;18.41;54.90;96648.84;5006290;28;20200;-71
2022/05/16 04:12:20;;;;;;;3.67;2.50;;;;;;;18.44;54.71;96645.66;5015241;28;20270;-70
2022/05/16 04:14:46;;;;;;;2.60;2.10;;;;;;;18.43;54.93;96645.91;5014908;28;20215;-70
2022/05/16 04:17:11;;;;;;;2.67;1.90;;;;;;;18.22;55.82;96653.28;5014959;28;20632;-70
2022/05/16 04:19:36;;;;;;;2.40;2.20;;;;;;;18.44;55.53;96650.16;5014893;28;20241;-70
2022/05/16 04:22:02;;;;;;;2.58;2.38;;;;;;;18.44;55.57;96658.91;5014732;28;20187;-70
2022/05/16 04:24:27;;;;;;;2.67;2.47;;;;;;;18.41;55.74;96666.63;5014439;28;20183;-70
2022/05/16 04:26:53;;;;;;;3.45;2.67;;;;;;;18.57;55.54;96662.78;5014621;28;20986;-69
2022/05/16 04:29:18;;;;;;;3.15;2.38;;;;;;;18.61;55.50;96667.25;5015086;28;20195;-70
2022/05/16 04:31:43;;;;;;;3.85;2.13;;;;;;;18.62;55.70;96665.41;5014817;28;20179;-70
2022/05/16 04:34:09;;;;;;;3.70;2.25;;;;;;;18.57;56.21;96673.41;5014989;28;20641;-70
2022/05/16 04:36:36;;;;;;;3.60;2.15;;;;;;;18.42;58.73;96669.00;4996935;28;20605;-71
2022/05/16 04:39:03;;;;;;;2.55;2.20;;;;;;;18.40;60.61;96673.78;5014626;28;20275;-70
2022/05/16 04:44:12;;;;;;;6.10;2.85;;;;;;;18.34;64.43;96674.09;5014789;28;20186;-70
2022/05/16 04:46:38;;;;;;;3.35;2.58;;;;;;;18.33;64.62;96675.22;5014364;28;20342;-71
2022/05/16 04:49:03;;;;;;;2.60;2.45;;;;;;;18.32;65.59;96678.91;5014227;28;20207;-71
2022/05/16 04:51:28;;;;;;;2.95;2.75;;;;;;;18.15;66.16;96682.78;5014073;28;20547;-71
2022/05/16 04:53:54;;;;;;;2.70;2.50;;;;;;;18.13;65.86;96681.44;5014474;28;20274;-70
2022/05/16 04:56:19;;;;;;;2.97;2.50;;;;;;;18.07;66.81;96677.25;5014109;28;20215;-70
2022/05/16 04:58:45;;;;;;;4.60;2.53;;;;;;;17.93;68.26;96681.59;5014945;28;20198;-70
2022/05/16 05:01:11;;;;;;;3.38;2.78;;;;;;;18.13;66.39;96681.44;5014136;28;20187;-70
2022/05/16 05:03:36;;;;;;;3.70;2.95;;;;;;;18.39;65.40;96680.16;5013829;28;20191;-70
2022/05/16 05:06:01;;;;;;;3.63;2.60;;;;;;;18.24;66.79;96675.78;5014036;28;20745;-70
2022/05/16 05:08:27;;;;;;;2.77;2.50;;;;;;;18.28;66.60;96676.00;5009725;28;20208;-69
2022/05/16 05:16:23;;;;;;;3.17;2.78;;;;;;;18.55;65.12;96680.88;5013821;28;20248;-70
2022/05/16 05:18:49;;;;;;;2.58;2.20;;;;;;;18.68;64.27;96677.56;5009541;28;20897;-69
2022/05/16 05:21:15;;;;;;;2.85;2.63;;;;;;;18.88;64.01;96681.88;4993784;28;20192;-69
2022/05/16 05:23:40;;;;;;;5.22;2.78;;;;;;;18.92;63.52;96675.72;5009385;28;20199;-70
2022/05/16 05:26:08;;;;;;;4.68;2.67;;;;;;;18.79;64.77;96679.03;4993267;28;20630;-69
2022/05/16 05:28:34;;;;;;;2.55;2.38;;;;;;;18.74;65.28;96680.94;4994386;28;20207;-69
2022/05/16 05:31:00;;;;;;;3.33;2.53;;;;;;;18.86;63.85;96687.47;4993879;28;20176;-70
2022/05/16 05:33:26;;;;;;;4.35;3.20;;;;;;;19.26;62.47;96686.22;4994195;28;20551;-69
2022/05/16 05:35:52;;;;;;;3.72;2.50;;;;;;;19.20;63.98;96691.88;4994472;28;20195;-69
2022/05/16 05:38:18;;;;;;;3.05;2.65;;;;;;;19.15;63.25;96686.63;4994184;28;20192;-69
2022/05/16 05:40:44;;;;;;;4.28;2.58;;;;;;;18.96;63.12;96699.84;4994002;28;20188;-69
2022/05/16 05:43:09;;;;;;;2.72;2.38;;;;;;;18.99;63.04;96694.78;4993905;28;20190;-70
2022/05/16 05:45:35;;;;;;;7.85;2.60;;;;;;;19.11;62.51;96702.34;4993863;28;20520;-70
2022/05/16 05:48:02;;;;;;;2.70;2.30;;;;;;;19.07;62.60;96698.66;4993633;28;20223;-70
2022/05/16 05:50:28;;;;;;;3.03;2.50;;;;;;;19.31;61.32;96699.47;4993746;28;20196;-68
2022/05/16 05:52:53;;;;;;;2.60;2.40;;;;;;;18.97;62.22;96693.47;4994004;28;20242;-68
2022/05/16 05:55:19;;;;;;;5.15;2.17;;;;;;;19.02;62.31;96698.72;4993771;28;20238;-68
2022/05/16 05:57:44;;;;;;;6.80;2.35;;;;;;;18.82;63.13;96697.06;4993975;28;20700;-68
2022/05/16 06:00:12;;;;;;;2.92;2.70;;;;;;;18.91;63.27;96703.34;4993306;28;20559;-69
2022/05/16 06:02:40;;;;;;;2.90;2.65;;;;;;;18.82;63.72;96706.91;4992815;28;20188;-69
2022/05/16 06:05:08;;;;;;;5.40;2.90;;;;;;;19.08;62.51;96711.66;4993454;28;20632;-69
2022/05/16 06:07:33;;;;;;;2.53;2.33;;;;;;;18.95;62.92;96719.50;4993181;28;20675;-69
2022/05/16 06:09:59;;;;;;;4.97;2.88;;;;;;;18.83;62.97;96727.09;4987756;28;20219;-68
2022/05/16 06:12:24;;;;;;;2.72;2.50;;;;;;;18.91;62.66;96719.28;4993357;28;20629;-69
2022/05/16 06:14:49;;;;;;;3.15;2.50;;;;;;;18.89;62.29;96723.31;4992980;28;20180;-69
2022/05/16 06:17:15;;;;;;;2.67;2.38;;;;;;;19.17;61.14;96719.81;4995485;28;20250;-68
2022/05/16 06:19:47;;;;;;;4.15;2.33;;;;;;;19.15;61.33;96727.28;5013589;28;20627;-68
2022/05/16 06:22:13;;;;;;;3.22;2.60;;;;;;;19.16;61.57;96731.53;5012674;28;20176;-68
2022/05/16 06:27:23;;;;;;;2.85;2.35;;;;;;;19.51;60.65;96735.66;5012831;28;20183;-68
2022/05/16 06:29:48;;;;;;;5.03;2.20;;;;;;;19.51;60.35;96735.66;5012698;28;20191;-69
2022/05/16 06:32:13;;;;;;;4.25;2.13;;;;;;;19.45;60.84;96747.44;4995211;28;20219;-69
2022/05/16 06:34:39;;;;;;;2.40;2.20;;;;;;;19.62;60.49;96754.94;5012739;28;20240;-69
2022/05/16 06:37:04;;;;;;;3.60;2.40;;;;;;;19.51;60.64;96755.06;5011423;28;20628;-68
2022/05/16 06:39:30;;;;;;;4.97;2.70;;;;;;;19.50;60.60;96760.69;4996505;28;20195;-68
2022/05/16 06:41:55;;;;;;;3.42;2.42;;;;;;;19.59;60.03;96763.50;4993198;28;20176;-68
2022/05/16 06:44:21;;;;;;;3.40;2.55;;;;;;;19.62;59.79;96763.72;4996663;28;20179;-68
2022/05/16 06:46:46;;;;;;;4.38;2.67;;;;;;;19.91;59.18;96764.41;5011613;28;20640;-68
2022/05/16 06:49:12;;;;;;;3.15;2.88;;;;;;;20.14;58.50;96762.78;5001124;28;20208;-68
2022/05/16 06:51:37;;;;;;;5.03;2.80;;;;;;;20.71;57.19;96760.88;5000877;28;20235;-68
2022/05/16 06:54:04;;;;;;;3.20;2.53;;;;;;;21.01;56.50;96768.34;5005307;28;20195;-68
2022/05/16 06:56:29;;;;;;;3.63;2.65;;;;;;;21.35;55.86;96762.69;5012069;28;20178;-68
2022/05/16 06:58:55;;;;;;;5.60;2.90;;;;;;;21.61;55.53;96756.88;5012574;28;20187;-68
2022/05/16 07:01:20;;;;;;;3.45;2.50;;;;;;;21.55;56.25;96767.66;5010293;28;20195;-69
2022/05/16 07:03:46;;;;;;;5.10;2.65;;;;;;;22.07;55.03;96772.75;5007023;28;20223;-68
2022/05/16 07:06:14;;;;;;;3.08;2.67;;;;;;;22.28;54.45;96765.88;5011674;28;20191;-68
2022/05/16 07:08:40;;;;;;;5.18;2.70;;;;;;;22.54;54.53;96776.75;5004169;28;20537;-68
2022/05/16 07:11:06;;;;;;;2.58;2.38;;;;;;;22.45;54.63;96774.03;5012666;28;20199;-68
2022/05/16 07:13:31;;;;;;;4.43;2.53;;;;;;;22.59;54.28;96769.41;5013707;28;20187;-68
2022/05/16 07:15:57;;;;;;;3.00;2.65;;;;;;;22.88;53.85;96777.03;4998497;28;20187;-68
2022/05/16 07:18:23;;;;;;;2.53;2.33;;;;;;;23.12;53.52;96776.69;5015051;28;20227;-68
2022/05/16 07:20:49;;;;;;;4.80;2.65;;;;;;;22.88;54.61;96782.38;5016051;28;20266;-68
2022/05/16 07:23:15;;;;;;;3.97;2.80;;;;;;;22.96;54.17;96773.59;5015777;28;20183;-68
2022/05/16 07:28:24;;;;;;;4.95;2.72;;;;;;;23.83;52.88;96777.47;5015017;28;20218;-69
2022/05/16 07:30:51;;;;;;;5.32;2.55;;;;;;;23.66;53.14;96778.19;5015342;28;20636;-68
2022/05/16 07:33:17;;;;;;;3.03;2.60;;;;;;;23.80;53.03;96780.75;5015384;28;20187;-69
2022/05/16 07:35:42;;;;;;;2.72;2.35;;;;;;;23.74;53.71;96782.78;5015273;28;20242;-69
2022/05/16 07:38:08;;;;;;;4.60;2.72;;;;;;;24.28;52.23;96786.88;5015275;28;20183;-69
2022/05/16 07:40:36;;;;;;;3.55;2.78;;;;;;;24.18;53.14;96792.53;5015559;28;20266;-68
2022/05/16 07:43:02;;;;;;;5.00;3.13;;;;;;;24.09;54.11;96788.22;4997782;28;20205;-69
2022/05/16 07:45:28;;;;;;;3.72;2.90;;;;;;;24.01;54.50;96787.13;5015569;28;20187;-68
2022/05/16 07:47:54;;;;;;;3.70;3.05;;;;;;;23.68;55.33;96792.06;5014709;28;20294;-68
2022/05/16 07:50:20;;;;;;;6.57;2.90;;;;;;;23.68;55.62;96794.75;5015782;28;20278;-68
2022/05/16 07:52:48;;;;;;;7.30;3.30;;;;;;;23.75;56.92;96800.41;5014474;28;20191;-69
2022/05/16 07:55:23;;;;;;;4.55;3.25;;;;;;;23.83;56.32;96802.34;5015430;28;20202;-68
2022/05/16 07:57:48;;;;;;;3.78;2.92;;;;;;;23.48;55.90;96800.63;5015107;28;20193;-69
2022/05/16 08:00:16;;;;;;;3.63;3.13;;;;;;;23.71;55.30;96796.00;5030734;28;20176;-68
2022/05/16 08:02:41;;;;;;;3.30;2.67;;;;;;;23.67;55.68;96800.41;4997610;28;20265;-68
2022/05/16 08:05:13;;;;;;;2.90;2.63;;;;;;;23.88;54.70;96798.72;5015080;28;20246;-68
2022/05/16 08:10:29;;;;;;;3.75;2.80;;;;;;;23.77;55.10;96802.78;5009787;28;20682;-68
2022/05/16 08:10:30;;;;;;;2.70;2.50;;;;;;;23.98;54.91;96817.19;4983503;28;20182;-68
2022/05/16 08:12:56;;;;;;;2.85;2.63;;;;;;;24.24;54.52;96810.00;5013452;28;20183;-68
2022/05/16 08:15:22;;;;;;;3.45;2.65;;;;;;;23.58;55.55;96811.06;5015010;28;20195;-69
2022/05/16 08:17:48;;;;;;;3.85;2.75;;;;;;;23.63;55.72;96814.38;5015046;28;20579;-69
2022/05/16 08:20:13;;;;;;;4.50;2.88;;;;;;;23.46;55.82;96816.22;5014707;28;20191;-68
2022/05/16 08:22:39;;;;;;;3.28;2.88;;;;;;;23.64;57.02;96817.84;5014696;28;20505;-68
2022/05/16 08:25:05;;;;;;;4.55;2.72;;;;;;;23.56;59.35;96824.78;5013678;28;20187;-68
2022/05/16 08:27:31;;;;;;;2.83;2.55;;;;;;;23.36;59.68;96811.88;5014841;28;20268;-68
2022/05/16 08:29:56;;;;;;;5.05;2.80;;;;;;;23.15;61.09;96816.97;5014818;28;20636;-69
2022/05/16 08:32:25;;;;;;;6.53;3.28;;;;;;;23.25;60.03;96818.59;5014412;28;20652;-68
2022/05/16 08:34:51;;;;;;;6.43;2.85;;;;;;;23.32;60.35;96824.31;5014462;28;20218;-68
2022/05/16 08:40:04;;;;;;;4.60;3.00;;;;;;;23.66;58.74;96838.97;5014273;28;20674;-68
2022/05/16 08:42:44;;;;;;;5.95;3.50;;;;;;;23.68;59.08;96840.25;5014426;28;20203;-68
2022/05/16 08:45:21;;;;;;;7.35;3.25;;;;;;;23.20;58.93;96835.56;5014560;28;20186;-69
2022/05/16 08:48:05;;;;;;;9.88;2.97;;;;;;;23.52;57.20;96841.72;4999418;28;20586;-69
2022/05/16 08:50:46;;;;;;;5.43;3.15;;;;;;;23.67;57.82;96852.06;5001018;28;20564;-68
2022/05/16 08:53:15;;;;;;;3.85;3.40;;;;;;;24.19;56.57;96844.97;5010671;28;20172;-69
2022/05/16 08:55:47;;;;;;;3.47;3.13;;;;;;;24.37;54.34;96856.53;5014442;28;20245;-69
2022/05/16 08:58:34;;;;;;;7.65;3.28;;;;;;;24.30;54.32;96856.19;5013944;28;20635;-69
2022/05/16 09:01:10;;;;;;;4.57;3.45;;;;;;;24.67;53.12;96855.63;5014454;28;20187;-68
2022/05/16 09:03:43;;;;;;;4.78;3.20;;;;;;;24.42;53.05;96849.13;5013899;28;20518;-68
2022/05/16 09:06:16;;;;;;;4.72;3.95;;;;;;;24.97;51.91;96850.41;5013323;28;20542;-70
2022/05/16 09:08:57;;;;;;;4.90;3.38;;;;;;;25.41;51.06;96851.94;4998965;28;20210;-69
2022/05/16 09:11:38;;;;;;;4.07;3.30;;;;;;;25.99;49.18;96843.19;5014072;28;20179;-68
2022/05/16 09:14:07;;;;;;;3.75;3.20;;;;;;;26.33;48.30;96856.47;5013560;28;20239;-68
2022/05/16 09:16:40;;;;;;;8.27;3.55;;;;;;;26.32;47.18;96851.41;5013367;28;20329;-68
2022/05/16 09:19:28;;;;;;;3.53;3.17;;;;;;;25.78;47.96;96853.88;5013175;28;20235;-69
2022/05/16 09:22:11;;;;;;;4.25;3.42;;;;;;;25.46;49.01;96855.22;5013742;28;20183;-68
2022/05/16 09:24:45;;;;;;;4.35;3.70;;;;;;;25.65;48.97;96852.19;5012631;28;20183;-68
2022/05/16 09:30:16;;;;;;;7.88;3.33;;;;;;;26.52;47.17;96852.56;5012619;28;20182;-70
2022/05/16 09:32:48;;;;;;;3.47;3.17;;;;;;;26.91;46.45;96851.31;5013000;28;20191;-70
2022/05/16 09:35:27;;;;;;;4.35;3.45;;;;;;;27.25;46.06;96853.69;5012905;28;20191;-69
2022/05/16 09:37:55;;;;;;;6.80;3.38;;;;;;;27.79;44.31;96856.28;4993341;28;20277;-68
2022/05/16 09:40:59;;;;;;;6.32;4.10;;;;;;;27.40;44.41;96857.66;5013020;28;20195;-69
2022/05/16 09:43:29;;;;;;;3.92;3.45;;;;;;;27.13;44.36;96850.97;5013228;28;20190;-69
2022/05/16 09:46:23;;;;;;;4.25;3.10;;;;;;;27.62;44.24;96849.19;5012925;28;20171;-69
2022/05/16 09:49:06;;;;;;;6.22;3.17;;;;;;;28.00;43.43;96848.88;5013060;28;20265;-69
2022/05/16 09:51:42;;;;;;;3.83;3.20;;;;;;;27.96;43.45;96848.00;5012626;28;20199;-69
2022/05/16 09:54:26;;;;;;;5.55;3.17;;;;;;;28.26;42.97;96860.13;5013294;28;20178;-68
2022/05/16 09:56:55;;;;;;;6.03;3.55;;;;;;;27.80;44.14;96860.56;5013086;28;20179;-69
2022/05/16 09:59:42;;;;;;;7.97;3.65;;;;;;;27.41;44.30;96868.09;4995120;28;20195;-69
2022/05/16 10:02:12;;;;;;;5.80;3.40;;;;;;;27.22;43.12;96865.09;5013222;28;20176;-69
2022/05/16 10:04:41;;;;;;;4.07;3.05;;;;;;;27.25;42.30;96857.16;5012768;28;20544;-68
2022/05/16 10:07:08;;;;;;;3.60;3.22;;;;;;;27.15;41.55;96856.78;5002930;28;20255;-69
2022/05/16 10:09:37;;;;;;;6.13;3.13;;;;;;;26.34;43.43;96858.03;5012701;28;20207;-69
2022/05/16 10:12:06;;;;;;;4.55;3.20;;;;;;;26.16;43.95;96856.53;5012658;28;20195;-70
2022/05/16 10:14:37;;;;;;;5.10;3.47;;;;;;;26.12;43.98;96866.38;5012283;28;20274;-70
2022/05/16 10:17:04;;;;;;;5.22;3.08;;;;;;;26.41;43.46;96860.22;5010044;28;20269;-70
2022/05/16 10:19:32;;;;;;;5.32;2.88;;;;;;;26.42;43.02;96870.63;5012683;28;20644;-69
2022/05/16 10:22:03;;;;;;;4.95;3.03;;;;;;;26.54;42.26;96864.53;5012455;28;20179;-69
2022/05/16 10:24:34;;;;;;;3.67;3.03;;;;;;;26.41;42.47;96865.59;5011781;28;20183;-70
2022/05/16 10:27:06;;;;;;;5.30;2.90;;;;;;;26.93;41.91;96860.63;5012886;28;20175;-69
2022/05/16 10:29:34;;;;;;;6.70;3.30;;;;;;;27.03;40.92;96865.59;5012570;28;20239;-69
2022/05/16 10:35:16;;;;;;;8.82;3.25;;;;;;;26.47;43.81;96861.59;5019186;28;20174;-69
2022/05/16 10:37:45;;;;;;;3.90;3.30;;;;;;;25.62;45.41;96880.47;5012416;28;20533;-69
2022/05/16 10:40:23;;;;;;;4.93;3.30;;;;;;;26.12;44.31;96876.31;5012242;28;20234;-71
2022/05/16 10:43:23;;;;;;;6.03;3.50;;;;;;;25.67;45.42;96874.13;4996336;28;20190;-69
2022/05/16 10:45:57;;;;;;;4.50;3.03;;;;;;;25.39;45.88;96876.41;5008122;28;20288;-69
2022/05/16 10:48:42;;;;;;;8.45;3.28;;;;;;;24.96;47.09;96881.84;5013836;28;20625;-69
2022/05/16 10:51:14;;;;;;;3.33;3.00;;;;;;;24.90;46.72;96891.13;4991841;28;20222;-69
2022/05/16 10:53:53;;;;;;;3.88;3.28;;;;;;;24.47;48.54;96885.69;5016196;28;20214;-70
2022/05/16 10:56:43;;;;;;;7.07;3.78;;;;;;;24.87;47.76;96878.31;5016787;28;20179;-69
2022/05/16 10:59:10;;;;;;;5.38;3.30;;;;;;;24.56;48.64;96883.03;4991956;28;20704;-69
2022/05/16 11:02:21;;;;;;;7.28;3.08;;;;;;;24.35;48.44;96877.50;5016576;28;20186;-70
2022/05/16 11:05:20;;;;;;;12.93;2.72;;;;;;;23.88;49.05;96887.09;5015612;28;20561;-69
2022/05/16 11:07:57;;;;;;;3.95;2.15;;;;;;;24.15;48.87;96888.75;5011916;28;20271;-70
2022/05/16 11:11:10;;;;;;;4.30;2.60;;;;;;;23.57;49.99;96893.22;5015823;28;20252;-70
2022/05/16 11:14:04;;;;;;;6.20;2.85;;;;;;;23.84;49.50;96894.97;4974636;28;20201;-69
2022/05/16 11:16:34;;;;;;;3.80;2.65;;;;;;;23.71;50.07;96898.50;4974769;28;20296;-69
2022/05/16 11:19:30;;;;;;;9.93;2.58;;;;;;;23.81;49.89;96892.88;4989171;28;20382;-69
2022/05/16 11:22:17;;;;;;;4.28;2.88;;;;;;;23.63;50.05;96913.41;5015807;28;20270;-69
2022/05/16 11:25:07;;;;;;;4.50;2.30;;;;;;;23.23;50.96;96895.69;5015214;28;20179;-69
2022/05/16 11:27:49;;;;;;;6.03;2.47;;;;;;;23.31;51.54;96915.56;5015446;28;20646;-69
2022/05/16 11:30:26;;;;;;;4.30;2.85;;;;;;;23.22;52.20;96915.50;5015883;28;20183;-69
2022/05/16 11:33:33;;;;;;;6.05;3.08;;;;;;;23.33;52.44;96929.44;4992688;28;20186;-69
2022/05/16 11:36:03;;;;;;;3.45;2.38;;;;;;;23.31;51.40;96921.69;5007310;28;20222;-69
2022/05/16 11:39:05;;;;;;;6.45;2.53;;;;;;;22.98;50.49;96929.16;5015163;28;20179;-69
2022/05/16 11:41:33;;;;;;;4.88;1.70;;;;;;;22.68;50.89;96938.59;4982661;28;20686;-68
2022/05/16 11:44:24;;;;;;;1.73;1.63;;;;;;;22.66;50.74;96938.13;5000739;28;20192;-68
2022/05/16 11:47:21;;;;;;;4.15;1.60;;;;;;;22.52;50.72;96937.34;5013216;28;20176;-68
2022/05/16 11:50:05;;;;;;;2.00;1.50;;;;;;;22.58;51.14;96946.84;5015482;28;20241;-69
2022/05/16 11:52:30;;;;;;;3.00;1.55;;;;;;;22.54;51.24;96950.41;5015182;28;20632;-68
2022/05/16 12:00:31;;;;;;;5.57;1.65;;;;;;;22.31;50.59;96960.22;5014572;28;20255;-69
2022/05/16 12:00:58;;;;;;;3.97;1.60;;;;;;;22.04;50.47;96946.88;5014100;28;20198;-68
2022/05/16 12:03:36;;;;;;;1.40;1.30;;;;;;;21.92;50.56;96958.78;5014688;28;20222;-68
2022/05/16 12:06:34;;;;;;;4.40;1.90;;;;;;;21.90;50.30;96944.94;5009624;28;20461;-67
2022/05/16 12:09:16;;;;;;;2.67;1.60;;;;;;;21.71;51.33;96949.56;5015385;28;20217;-68
2022/05/16 12:12:22;;;;;;;2.03;1.65;;;;;;;21.24;55.71;96950.59;5015187;28;20632;-68
2022/05/16 12:15:26;;;;;;;5.05;1.70;;;;;;;20.80;60.77;96942.94;5014183;28;20210;-69
2022/05/16 12:18:26;;;;;;;2.85;1.52;;;;;;;20.32;62.16;96955.56;5014225;28;20251;-68
2022/05/16 12:21:17;;;;;;;6.85;1.92;;;;;;;19.91;71.07;96953.31;4988369;28;20188;-69
2022/05/16 12:23:52;;;;;;;4.57;1.65;;;;;;;19.72;72.60;96957.78;5014548;28;20183;-68